sensor_id;sensor_type;location;lat;lon;timestamp;P1;durP1;ratioP1;P2;durP2;ratioP2
75971;SDS011;64651;47.540;19.088;2022-12-18T00:04:15;42.10;;;14.02;;
75971;SDS011;64651;47.540;19.088;2022-12-18T00:09:23;39.00;;;12.68;;
75971;SDS011;64651;47.540;19.088;2022-12-18T00:14:31;42.63;;;12.70;;
75971;SDS011;64651;47.540;19.088;2022-12-18T00:19:33;44.72;;;13.48;;
75971;SDS011;64651;47.540;19.088;2022-12-18T00:24:35;39.92;;;12.43;;
75971;SDS011;64651;47.540;19.088;2022-12-18T00:29:38;47.55;;;14.80;;
75971;SDS011;64651;47.540;19.088;2022-12-18T00:34:40;46.00;;;14.13;;
75971;SDS011;64651;47.540;19.088;2022-12-18T00:39:42;50.87;;;15.63;;
75971;SDS011;64651;47.540;19.088;2022-12-18T00:44:44;38.83;;;12.65;;
75971;SDS011;64651;47.540;19.088;2022-12-18T00:49:46;40.30;;;12.93;;
75971;SDS011;64651;47.540;19.088;2022-12-18T00:54:48;39.30;;;12.65;;
75971;SDS011;64651;47.540;19.088;2022-12-18T00:59:50;45.47;;;13.35;;
75971;SDS011;64651;47.540;19.088;2022-12-18T01:04:53;40.57;;;13.77;;
75971;SDS011;64651;47.540;19.088;2022-12-18T01:09:55;47.75;;;14.82;;
75971;SDS011;64651;47.540;19.088;2022-12-18T01:14:57;29.52;;;9.95;;
75971;SDS011;64651;47.540;19.088;2022-12-18T01:20:00;45.17;;;13.32;;
75971;SDS011;64651;47.540;19.088;2022-12-18T01:25:02;31.58;;;10.25;;
75971;SDS011;64651;47.540;19.088;2022-12-18T01:30:06;40.90;;;13.70;;
75971;SDS011;64651;47.540;19.088;2022-12-18T01:35:09;29.25;;;7.93;;
75971;SDS011;64651;47.540;19.088;2022-12-18T01:40:11;44.42;;;13.18;;
75971;SDS011;64651;47.540;19.088;2022-12-18T01:50:35;35.92;;;11.50;;
75971;SDS011;64651;47.540;19.088;2022-12-18T01:55:43;33.60;;;10.97;;
75971;SDS011;64651;47.540;19.088;2022-12-18T02:00:48;41.03;;;12.10;;
75971;SDS011;64651;47.540;19.088;2022-12-18T02:06:08;38.75;;;12.57;;
75971;SDS011;64651;47.540;19.088;2022-12-18T02:16:39;43.20;;;13.62;;
75971;SDS011;64651;47.540;19.088;2022-12-18T02:27:14;45.25;;;13.65;;
75971;SDS011;64651;47.540;19.088;2022-12-18T02:32:22;39.92;;;13.25;;
75971;SDS011;64651;47.540;19.088;2022-12-18T02:37:28;42.47;;;14.27;;
75971;SDS011;64651;47.540;19.088;2022-12-18T02:42:32;47.15;;;14.02;;
75971;SDS011;64651;47.540;19.088;2022-12-18T02:47:37;34.57;;;11.70;;
75971;SDS011;64651;47.540;19.088;2022-12-18T02:58:15;43.38;;;12.93;;
75971;SDS011;64651;47.540;19.088;2022-12-18T03:08:37;39.40;;;12.85;;
75971;SDS011;64651;47.540;19.088;2022-12-18T03:13:48;43.80;;;14.13;;
75971;SDS011;64651;47.540;19.088;2022-12-18T03:18:58;40.72;;;13.10;;
75971;SDS011;64651;47.540;19.088;2022-12-18T03:24:05;44.40;;;14.45;;
75971;SDS011;64651;47.540;19.088;2022-12-18T03:29:18;37.97;;;12.48;;
75971;SDS011;64651;47.540;19.088;2022-12-18T03:34:42;48.22;;;14.43;;
75971;SDS011;64651;47.540;19.088;2022-12-18T03:39:48;48.23;;;14.03;;
75971;SDS011;64651;47.540;19.088;2022-12-18T03:44:55;43.33;;;14.18;;
75971;SDS011;64651;47.540;19.088;2022-12-18T03:50:10;49.08;;;15.10;;
75971;SDS011;64651;47.540;19.088;2022-12-18T03:55:19;45.08;;;13.05;;
75971;SDS011;64651;47.540;19.088;2022-12-18T04:00:24;44.95;;;13.93;;
75971;SDS011;64651;47.540;19.088;2022-12-18T04:05:26;48.13;;;15.63;;
75971;SDS011;64651;47.540;19.088;2022-12-18T04:10:30;50.88;;;15.10;;
75971;SDS011;64651;47.540;19.088;2022-12-18T04:15:33;47.35;;;13.77;;
75971;SDS011;64651;47.540;19.088;2022-12-18T04:20:38;46.67;;;13.05;;
75971;SDS011;64651;47.540;19.088;2022-12-18T04:25:40;44.17;;;14.07;;
75971;SDS011;64651;47.540;19.088;2022-12-18T04:30:42;47.80;;;14.90;;
75971;SDS011;64651;47.540;19.088;2022-12-18T04:35:45;43.08;;;14.02;;
75971;SDS011;64651;47.540;19.088;2022-12-18T04:40:48;38.42;;;11.85;;
75971;SDS011;64651;47.540;19.088;2022-12-18T04:45:50;38.75;;;11.98;;
75971;SDS011;64651;47.540;19.088;2022-12-18T04:50:52;45.55;;;13.62;;
75971;SDS011;64651;47.540;19.088;2022-12-18T05:01:06;41.67;;;12.10;;
75971;SDS011;64651;47.540;19.088;2022-12-18T05:06:09;39.55;;;12.48;;
75971;SDS011;64651;47.540;19.088;2022-12-18T05:11:13;33.63;;;12.20;;
75971;SDS011;64651;47.540;19.088;2022-12-18T05:16:17;46.25;;;12.98;;
75971;SDS011;64651;47.540;19.088;2022-12-18T05:21:19;41.33;;;14.27;;
75971;SDS011;64651;47.540;19.088;2022-12-18T05:26:21;44.30;;;14.38;;
75971;SDS011;64651;47.540;19.088;2022-12-18T05:31:23;45.20;;;15.60;;
75971;SDS011;64651;47.540;19.088;2022-12-18T05:36:26;47.45;;;14.45;;
75971;SDS011;64651;47.540;19.088;2022-12-18T05:41:28;43.75;;;13.68;;
75971;SDS011;64651;47.540;19.088;2022-12-18T05:46:30;45.00;;;13.17;;
75971;SDS011;64651;47.540;19.088;2022-12-18T05:51:32;45.05;;;15.30;;
75971;SDS011;64651;47.540;19.088;2022-12-18T05:56:34;44.58;;;14.82;;
75971;SDS011;64651;47.540;19.088;2022-12-18T06:01:36;39.30;;;13.07;;
75971;SDS011;64651;47.540;19.088;2022-12-18T06:06:39;44.50;;;14.80;;
75971;SDS011;64651;47.540;19.088;2022-12-18T06:11:41;40.63;;;12.47;;
75971;SDS011;64651;47.540;19.088;2022-12-18T06:16:43;43.05;;;13.85;;
75971;SDS011;64651;47.540;19.088;2022-12-18T06:21:46;48.85;;;14.05;;
75971;SDS011;64651;47.540;19.088;2022-12-18T06:26:48;40.90;;;13.13;;
75971;SDS011;64651;47.540;19.088;2022-12-18T06:31:50;39.58;;;13.88;;
75971;SDS011;64651;47.540;19.088;2022-12-18T06:36:52;41.33;;;13.93;;
75971;SDS011;64651;47.540;19.088;2022-12-18T06:41:55;44.80;;;13.27;;
75971;SDS011;64651;47.540;19.088;2022-12-18T06:46:57;44.80;;;13.80;;
75971;SDS011;64651;47.540;19.088;2022-12-18T06:51:59;45.47;;;14.10;;
75971;SDS011;64651;47.540;19.088;2022-12-18T06:57:01;47.75;;;13.18;;
75971;SDS011;64651;47.540;19.088;2022-12-18T07:02:03;44.07;;;13.40;;
75971;SDS011;64651;47.540;19.088;2022-12-18T07:07:06;48.87;;;14.82;;
75971;SDS011;64651;47.540;19.088;2022-12-18T07:12:08;43.13;;;13.07;;
75971;SDS011;64651;47.540;19.088;2022-12-18T07:17:11;46.55;;;14.57;;
75971;SDS011;64651;47.540;19.088;2022-12-18T07:22:13;50.10;;;15.38;;
75971;SDS011;64651;47.540;19.088;2022-12-18T07:27:15;44.70;;;15.33;;
75971;SDS011;64651;47.540;19.088;2022-12-18T07:32:18;43.03;;;13.98;;
75971;SDS011;64651;47.540;19.088;2022-12-18T07:37:20;44.15;;;13.00;;
75971;SDS011;64651;47.540;19.088;2022-12-18T07:42:22;44.33;;;14.40;;
75971;SDS011;64651;47.540;19.088;2022-12-18T07:47:34;47.30;;;13.18;;
75971;SDS011;64651;47.540;19.088;2022-12-18T07:52:37;43.43;;;13.50;;
75971;SDS011;64651;47.540;19.088;2022-12-18T07:57:39;47.85;;;14.10;;
75971;SDS011;64651;47.540;19.088;2022-12-18T08:02:52;40.67;;;12.90;;
75971;SDS011;64651;47.540;19.088;2022-12-18T08:07:54;44.90;;;13.30;;
75971;SDS011;64651;47.540;19.088;2022-12-18T08:12:56;42.15;;;14.45;;
75971;SDS011;64651;47.540;19.088;2022-12-18T08:18:05;42.63;;;13.43;;
75971;SDS011;64651;47.540;19.088;2022-12-18T08:23:14;44.22;;;13.20;;
75971;SDS011;64651;47.540;19.088;2022-12-18T08:28:17;39.67;;;13.05;;
75971;SDS011;64651;47.540;19.088;2022-12-18T08:33:19;41.08;;;13.07;;
75971;SDS011;64651;47.540;19.088;2022-12-18T08:38:21;43.75;;;13.48;;
75971;SDS011;64651;47.540;19.088;2022-12-18T08:43:24;43.57;;;14.27;;
75971;SDS011;64651;47.540;19.088;2022-12-18T08:48:45;50.97;;;14.20;;
75971;SDS011;64651;47.540;19.088;2022-12-18T08:53:47;44.67;;;14.85;;
75971;SDS011;64651;47.540;19.088;2022-12-18T08:58:53;45.90;;;14.63;;
75971;SDS011;64651;47.540;19.088;2022-12-18T09:03:56;39.00;;;13.00;;
75971;SDS011;64651;47.540;19.088;2022-12-18T09:08:58;48.80;;;15.17;;
75971;SDS011;64651;47.540;19.088;2022-12-18T09:14:00;46.08;;;14.65;;
75971;SDS011;64651;47.540;19.088;2022-12-18T09:19:03;43.60;;;15.32;;
75971;SDS011;64651;47.540;19.088;2022-12-18T09:24:08;45.40;;;15.02;;
75971;SDS011;64651;47.540;19.088;2022-12-18T09:29:14;47.83;;;17.27;;
75971;SDS011;64651;47.540;19.088;2022-12-18T09:34:19;46.10;;;15.27;;
75971;SDS011;64651;47.540;19.088;2022-12-18T09:39:23;43.50;;;15.20;;
75971;SDS011;64651;47.540;19.088;2022-12-18T09:44:28;46.70;;;15.50;;
75971;SDS011;64651;47.540;19.088;2022-12-18T09:49:34;44.15;;;15.32;;
75971;SDS011;64651;47.540;19.088;2022-12-18T09:54:42;40.17;;;14.25;;
75971;SDS011;64651;47.540;19.088;2022-12-18T10:00:23;44.87;;;16.53;;
75971;SDS011;64651;47.540;19.088;2022-12-18T10:10:50;39.50;;;15.10;;
75971;SDS011;64651;47.540;19.088;2022-12-18T10:21:16;43.75;;;17.15;;
75971;SDS011;64651;47.540;19.088;2022-12-18T10:26:23;41.93;;;18.20;;
75971;SDS011;64651;47.540;19.088;2022-12-18T10:31:26;44.00;;;19.95;;
75971;SDS011;64651;47.540;19.088;2022-12-18T10:36:29;42.65;;;19.85;;
75971;SDS011;64651;47.540;19.088;2022-12-18T10:41:31;41.33;;;21.15;;
75971;SDS011;64651;47.540;19.088;2022-12-18T10:46:34;39.65;;;19.65;;
75971;SDS011;64651;47.540;19.088;2022-12-18T10:51:36;41.40;;;20.13;;
75971;SDS011;64651;47.540;19.088;2022-12-18T10:56:40;41.47;;;20.42;;
75971;SDS011;64651;47.540;19.088;2022-12-18T11:01:45;40.45;;;20.25;;
75971;SDS011;64651;47.540;19.088;2022-12-18T11:06:52;37.35;;;20.40;;
75971;SDS011;64651;47.540;19.088;2022-12-18T11:12:01;39.50;;;20.08;;
75971;SDS011;64651;47.540;19.088;2022-12-18T11:17:17;36.60;;;20.03;;
75971;SDS011;64651;47.540;19.088;2022-12-18T11:22:28;37.85;;;19.90;;
75971;SDS011;64651;47.540;19.088;2022-12-18T11:27:54;33.80;;;18.35;;
75971;SDS011;64651;47.540;19.088;2022-12-18T11:43:27;34.53;;;18.33;;
75971;SDS011;64651;47.540;19.088;2022-12-18T11:48:37;36.45;;;18.60;;
75971;SDS011;64651;47.540;19.088;2022-12-18T11:53:47;30.12;;;15.45;;
75971;SDS011;64651;47.540;19.088;2022-12-18T12:25:59;33.92;;;16.50;;
75971;SDS011;64651;47.540;19.088;2022-12-18T12:42:18;36.47;;;17.67;;
75971;SDS011;64651;47.540;19.088;2022-12-18T12:47:47;35.55;;;16.92;;
75971;SDS011;64651;47.540;19.088;2022-12-18T12:52:53;37.75;;;18.10;;
75971;SDS011;64651;47.540;19.088;2022-12-18T13:03:27;37.60;;;18.93;;
75971;SDS011;64651;47.540;19.088;2022-12-18T13:08:58;38.28;;;18.05;;
75971;SDS011;64651;47.540;19.088;2022-12-18T13:14:02;38.55;;;18.30;;
75971;SDS011;64651;47.540;19.088;2022-12-18T13:19:18;36.55;;;16.33;;
75971;SDS011;64651;47.540;19.088;2022-12-18T13:24:28;36.53;;;15.60;;
75971;SDS011;64651;47.540;19.088;2022-12-18T13:29:43;34.17;;;15.97;;
75971;SDS011;64651;47.540;19.088;2022-12-18T13:34:48;35.60;;;15.88;;
75971;SDS011;64651;47.540;19.088;2022-12-18T13:39:50;35.08;;;14.63;;
75971;SDS011;64651;47.540;19.088;2022-12-18T13:44:52;35.58;;;15.15;;
75971;SDS011;64651;47.540;19.088;2022-12-18T13:49:55;34.10;;;14.80;;
75971;SDS011;64651;47.540;19.088;2022-12-18T13:54:59;57.80;;;36.77;;
75971;SDS011;64651;47.540;19.088;2022-12-18T14:10:35;34.42;;;14.45;;
75971;SDS011;64651;47.540;19.088;2022-12-18T14:15:50;35.28;;;14.70;;
75971;SDS011;64651;47.540;19.088;2022-12-18T14:20:54;34.77;;;14.73;;
75971;SDS011;64651;47.540;19.088;2022-12-18T14:25:59;40.50;;;16.87;;
75971;SDS011;64651;47.540;19.088;2022-12-18T14:31:27;39.53;;;16.73;;
75971;SDS011;64651;47.540;19.088;2022-12-18T14:36:31;37.83;;;15.15;;
75971;SDS011;64651;47.540;19.088;2022-12-18T14:41:33;40.88;;;15.63;;
75971;SDS011;64651;47.540;19.088;2022-12-18T14:46:37;45.77;;;15.73;;
75971;SDS011;64651;47.540;19.088;2022-12-18T14:51:41;43.15;;;16.23;;
75971;SDS011;64651;47.540;19.088;2022-12-18T14:56:52;40.88;;;14.95;;
75971;SDS011;64651;47.540;19.088;2022-12-18T15:02:26;41.03;;;15.60;;
75971;SDS011;64651;47.540;19.088;2022-12-18T15:17:58;52.00;;;19.10;;
75971;SDS011;64651;47.540;19.088;2022-12-18T15:23:01;46.95;;;17.40;;
75971;SDS011;64651;47.540;19.088;2022-12-18T15:28:03;44.47;;;16.55;;
75971;SDS011;64651;47.540;19.088;2022-12-18T15:33:24;45.78;;;16.17;;
75971;SDS011;64651;47.540;19.088;2022-12-18T15:38:28;39.47;;;14.30;;
75971;SDS011;64651;47.540;19.088;2022-12-18T15:43:30;36.90;;;13.27;;
75971;SDS011;64651;47.540;19.088;2022-12-18T15:48:43;45.30;;;15.18;;
75971;SDS011;64651;47.540;19.088;2022-12-18T15:53:47;35.47;;;13.35;;
75971;SDS011;64651;47.540;19.088;2022-12-18T15:58:51;39.78;;;14.35;;
75971;SDS011;64651;47.540;19.088;2022-12-18T16:03:54;41.83;;;14.47;;
75971;SDS011;64651;47.540;19.088;2022-12-18T16:08:56;41.42;;;13.85;;
75971;SDS011;64651;47.540;19.088;2022-12-18T16:13:59;41.88;;;14.57;;
75971;SDS011;64651;47.540;19.088;2022-12-18T16:19:01;40.17;;;15.15;;
75971;SDS011;64651;47.540;19.088;2022-12-18T16:24:04;40.80;;;15.00;;
75971;SDS011;64651;47.540;19.088;2022-12-18T16:29:06;42.07;;;14.60;;
75971;SDS011;64651;47.540;19.088;2022-12-18T16:34:19;43.47;;;15.05;;
75971;SDS011;64651;47.540;19.088;2022-12-18T16:39:29;43.55;;;14.70;;
75971;SDS011;64651;47.540;19.088;2022-12-18T16:44:33;40.03;;;15.02;;
75971;SDS011;64651;47.540;19.088;2022-12-18T16:49:36;48.00;;;16.58;;
75971;SDS011;64651;47.540;19.088;2022-12-18T16:54:39;43.23;;;16.13;;
75971;SDS011;64651;47.540;19.088;2022-12-18T16:59:44;43.20;;;17.25;;
75971;SDS011;64651;47.540;19.088;2022-12-18T17:04:47;46.78;;;16.77;;
75971;SDS011;64651;47.540;19.088;2022-12-18T17:09:49;42.17;;;16.02;;
75971;SDS011;64651;47.540;19.088;2022-12-18T17:14:52;45.70;;;16.40;;
75971;SDS011;64651;47.540;19.088;2022-12-18T17:19:54;49.87;;;17.37;;
75971;SDS011;64651;47.540;19.088;2022-12-18T17:24:56;43.87;;;17.02;;
75971;SDS011;64651;47.540;19.088;2022-12-18T17:29:58;45.97;;;16.52;;
75971;SDS011;64651;47.540;19.088;2022-12-18T17:35:00;48.22;;;17.85;;
75971;SDS011;64651;47.540;19.088;2022-12-18T17:40:08;47.33;;;17.35;;
75971;SDS011;64651;47.540;19.088;2022-12-18T17:45:10;44.10;;;16.60;;
75971;SDS011;64651;47.540;19.088;2022-12-18T17:50:13;49.30;;;18.15;;
75971;SDS011;64651;47.540;19.088;2022-12-18T17:55:15;46.37;;;17.08;;
75971;SDS011;64651;47.540;19.088;2022-12-18T18:00:18;48.03;;;17.83;;
75971;SDS011;64651;47.540;19.088;2022-12-18T18:05:21;49.38;;;18.00;;
75971;SDS011;64651;47.540;19.088;2022-12-18T18:10:23;57.53;;;19.70;;
75971;SDS011;64651;47.540;19.088;2022-12-18T18:15:26;51.92;;;18.12;;
75971;SDS011;64651;47.540;19.088;2022-12-18T18:20:28;48.83;;;17.05;;
75971;SDS011;64651;47.540;19.088;2022-12-18T18:25:34;54.63;;;18.50;;
75971;SDS011;64651;47.540;19.088;2022-12-18T18:30:38;49.38;;;17.65;;
75971;SDS011;64651;47.540;19.088;2022-12-18T18:35:41;51.00;;;16.93;;
75971;SDS011;64651;47.540;19.088;2022-12-18T18:41:01;50.30;;;18.65;;
75971;SDS011;64651;47.540;19.088;2022-12-18T18:46:06;48.95;;;18.45;;
75971;SDS011;64651;47.540;19.088;2022-12-18T18:51:10;52.78;;;18.48;;
75971;SDS011;64651;47.540;19.088;2022-12-18T18:56:23;54.03;;;18.67;;
75971;SDS011;64651;47.540;19.088;2022-12-18T19:01:48;52.60;;;19.23;;
75971;SDS011;64651;47.540;19.088;2022-12-18T19:06:51;55.10;;;19.85;;
75971;SDS011;64651;47.540;19.088;2022-12-18T19:11:54;52.38;;;20.08;;
75971;SDS011;64651;47.540;19.088;2022-12-18T19:17:16;56.45;;;21.20;;
75971;SDS011;64651;47.540;19.088;2022-12-18T19:22:18;65.75;;;23.12;;
75971;SDS011;64651;47.540;19.088;2022-12-18T19:27:20;70.90;;;26.63;;
75971;SDS011;64651;47.540;19.088;2022-12-18T19:32:22;72.43;;;26.23;;
75971;SDS011;64651;47.540;19.088;2022-12-18T19:37:25;71.30;;;27.30;;
75971;SDS011;64651;47.540;19.088;2022-12-18T19:42:27;66.95;;;24.80;;
75971;SDS011;64651;47.540;19.088;2022-12-18T19:47:36;64.95;;;24.45;;
75971;SDS011;64651;47.540;19.088;2022-12-18T19:52:38;69.97;;;26.67;;
75971;SDS011;64651;47.540;19.088;2022-12-18T19:57:40;70.82;;;25.42;;
75971;SDS011;64651;47.540;19.088;2022-12-18T20:02:42;74.10;;;26.52;;
75971;SDS011;64651;47.540;19.088;2022-12-18T20:07:45;72.20;;;25.62;;
75971;SDS011;64651;47.540;19.088;2022-12-18T20:12:47;69.05;;;25.62;;
75971;SDS011;64651;47.540;19.088;2022-12-18T20:17:49;83.07;;;30.30;;
75971;SDS011;64651;47.540;19.088;2022-12-18T20:22:51;71.03;;;28.77;;
75971;SDS011;64651;47.540;19.088;2022-12-18T20:27:53;83.47;;;31.45;;
75971;SDS011;64651;47.540;19.088;2022-12-18T20:32:55;91.22;;;32.42;;
75971;SDS011;64651;47.540;19.088;2022-12-18T20:37:58;79.47;;;30.73;;
75971;SDS011;64651;47.540;19.088;2022-12-18T20:43:01;76.33;;;27.67;;
75971;SDS011;64651;47.540;19.088;2022-12-18T20:48:03;76.20;;;29.02;;
75971;SDS011;64651;47.540;19.088;2022-12-18T20:53:06;76.10;;;29.25;;
75971;SDS011;64651;47.540;19.088;2022-12-18T20:58:08;74.80;;;29.40;;
75971;SDS011;64651;47.540;19.088;2022-12-18T21:03:10;83.22;;;31.00;;
75971;SDS011;64651;47.540;19.088;2022-12-18T21:08:13;73.17;;;28.27;;
75971;SDS011;64651;47.540;19.088;2022-12-18T21:13:16;77.87;;;28.87;;
75971;SDS011;64651;47.540;19.088;2022-12-18T21:18:19;81.95;;;31.95;;
75971;SDS011;64651;47.540;19.088;2022-12-18T21:23:21;75.00;;;26.80;;
75971;SDS011;64651;47.540;19.088;2022-12-18T21:28:23;85.90;;;29.52;;
75971;SDS011;64651;47.540;19.088;2022-12-18T21:33:25;78.33;;;29.63;;
75971;SDS011;64651;47.540;19.088;2022-12-18T21:38:28;73.85;;;30.00;;
75971;SDS011;64651;47.540;19.088;2022-12-18T21:43:30;82.55;;;32.17;;
75971;SDS011;64651;47.540;19.088;2022-12-18T21:48:51;80.78;;;31.70;;
75971;SDS011;64651;47.540;19.088;2022-12-18T21:53:53;83.28;;;32.40;;
75971;SDS011;64651;47.540;19.088;2022-12-18T21:58:55;79.33;;;32.13;;
75971;SDS011;64651;47.540;19.088;2022-12-18T22:03:58;83.90;;;32.35;;
75971;SDS011;64651;47.540;19.088;2022-12-18T22:09:00;78.07;;;30.20;;
75971;SDS011;64651;47.540;19.088;2022-12-18T22:14:02;78.22;;;27.62;;
75971;SDS011;64651;47.540;19.088;2022-12-18T22:19:04;92.18;;;33.70;;
75971;SDS011;64651;47.540;19.088;2022-12-18T22:24:09;88.17;;;33.53;;
75971;SDS011;64651;47.540;19.088;2022-12-18T22:29:15;87.47;;;32.95;;
75971;SDS011;64651;47.540;19.088;2022-12-18T22:34:38;87.32;;;32.28;;
75971;SDS011;64651;47.540;19.088;2022-12-18T22:39:40;86.50;;;30.77;;
75971;SDS011;64651;47.540;19.088;2022-12-18T22:44:43;90.07;;;32.55;;
75971;SDS011;64651;47.540;19.088;2022-12-18T22:49:45;87.47;;;34.47;;
75971;SDS011;64651;47.540;19.088;2022-12-18T22:54:47;78.90;;;30.52;;
75971;SDS011;64651;47.540;19.088;2022-12-18T22:59:49;77.12;;;29.05;;
75971;SDS011;64651;47.540;19.088;2022-12-18T23:04:52;74.62;;;28.10;;
75971;SDS011;64651;47.540;19.088;2022-12-18T23:09:54;74.57;;;28.48;;
75971;SDS011;64651;47.540;19.088;2022-12-18T23:15:02;80.37;;;28.87;;
75971;SDS011;64651;47.540;19.088;2022-12-18T23:20:05;79.80;;;28.65;;
75971;SDS011;64651;47.540;19.088;2022-12-18T23:25:08;77.70;;;26.27;;
75971;SDS011;64651;47.540;19.088;2022-12-18T23:30:10;69.32;;;25.25;;
75971;SDS011;64651;47.540;19.088;2022-12-18T23:35:13;65.50;;;24.70;;
75971;SDS011;64651;47.540;19.088;2022-12-18T23:40:16;68.13;;;23.90;;
75971;SDS011;64651;47.540;19.088;2022-12-18T23:45:19;65.28;;;23.30;;
75971;SDS011;64651;47.540;19.088;2022-12-18T23:50:21;74.40;;;23.45;;
75971;SDS011;64651;47.540;19.088;2022-12-18T23:55:30;68.20;;;22.95;;
